sensor_id;sensor_type;location;lat;lon;timestamp;P1;durP1;ratioP1;P2;durP2;ratioP2
966;SDS011;56108;48.730;9.304;2023-09-12T00:00:12;15.57;;;10.40;;
966;SDS011;56108;48.730;9.304;2023-09-12T00:02:21;15.82;;;11.18;;
966;SDS011;56108;48.730;9.304;2023-09-12T00:04:30;17.05;;;11.25;;
966;SDS011;56108;48.730;9.304;2023-09-12T00:06:39;13.32;;;9.80;;
966;SDS011;56108;48.730;9.304;2023-09-12T00:08:48;12.60;;;9.95;;
966;SDS011;56108;48.730;9.304;2023-09-12T00:11:02;12.85;;;10.52;;
966;SDS011;56108;48.730;9.304;2023-09-12T00:13:17;13.43;;;9.70;;
966;SDS011;56108;48.730;9.304;2023-09-12T00:15:26;15.20;;;11.18;;
966;SDS011;56108;48.730;9.304;2023-09-12T00:17:35;14.73;;;10.45;;
966;SDS011;56108;48.730;9.304;2023-09-12T00:19:43;12.75;;;9.45;;
966;SDS011;56108;48.730;9.304;2023-09-12T00:21:52;13.13;;;10.45;;
966;SDS011;56108;48.730;9.304;2023-09-12T00:24:02;11.65;;;10.18;;
966;SDS011;56108;48.730;9.304;2023-09-12T00:26:11;12.50;;;10.50;;
966;SDS011;56108;48.730;9.304;2023-09-12T00:28:23;11.70;;;10.50;;
966;SDS011;56108;48.730;9.304;2023-09-12T00:30:32;15.63;;;10.52;;
966;SDS011;56108;48.730;9.304;2023-09-12T00:32:41;10.52;;;9.15;;
966;SDS011;56108;48.730;9.304;2023-09-12T00:34:49;11.00;;;9.80;;
966;SDS011;56108;48.730;9.304;2023-09-12T00:36:57;15.18;;;9.75;;
966;SDS011;56108;48.730;9.304;2023-09-12T00:39:06;13.02;;;10.85;;
966;SDS011;56108;48.730;9.304;2023-09-12T00:41:15;11.02;;;9.10;;
966;SDS011;56108;48.730;9.304;2023-09-12T00:43:26;13.18;;;10.45;;
966;SDS011;56108;48.730;9.304;2023-09-12T00:45:37;12.88;;;10.48;;
966;SDS011;56108;48.730;9.304;2023-09-12T00:47:46;17.13;;;8.95;;
966;SDS011;56108;48.730;9.304;2023-09-12T00:49:57;12.75;;;10.00;;
966;SDS011;56108;48.730;9.304;2023-09-12T00:52:07;12.07;;;9.55;;
966;SDS011;56108;48.730;9.304;2023-09-12T00:54:17;13.82;;;9.98;;
966;SDS011;56108;48.730;9.304;2023-09-12T00:56:29;10.95;;;9.80;;
966;SDS011;56108;48.730;9.304;2023-09-12T00:58:42;13.02;;;9.70;;
966;SDS011;56108;48.730;9.304;2023-09-12T01:00:51;12.23;;;10.18;;
966;SDS011;56108;48.730;9.304;2023-09-12T01:02:59;12.85;;;10.25;;
966;SDS011;56108;48.730;9.304;2023-09-12T01:05:09;11.77;;;10.57;;
966;SDS011;56108;48.730;9.304;2023-09-12T01:07:19;16.00;;;10.70;;
966;SDS011;56108;48.730;9.304;2023-09-12T01:09:28;12.23;;;10.55;;
966;SDS011;56108;48.730;9.304;2023-09-12T01:11:36;13.13;;;11.00;;
966;SDS011;56108;48.730;9.304;2023-09-12T01:13:48;11.82;;;9.65;;
966;SDS011;56108;48.730;9.304;2023-09-12T01:15:56;12.93;;;9.65;;
966;SDS011;56108;48.730;9.304;2023-09-12T01:18:05;14.73;;;10.40;;
966;SDS011;56108;48.730;9.304;2023-09-12T01:20:14;11.80;;;9.00;;
966;SDS011;56108;48.730;9.304;2023-09-12T01:22:27;13.75;;;9.35;;
966;SDS011;56108;48.730;9.304;2023-09-12T01:25:11;11.98;;;9.27;;
966;SDS011;56108;48.730;9.304;2023-09-12T01:27:36;10.95;;;8.88;;
966;SDS011;56108;48.730;9.304;2023-09-12T01:29:49;14.15;;;10.23;;
966;SDS011;56108;48.730;9.304;2023-09-12T01:32:01;14.10;;;11.23;;
966;SDS011;56108;48.730;9.304;2023-09-12T01:34:12;15.35;;;9.93;;
966;SDS011;56108;48.730;9.304;2023-09-12T01:36:26;11.38;;;9.60;;
966;SDS011;56108;48.730;9.304;2023-09-12T01:38:34;12.95;;;9.93;;
966;SDS011;56108;48.730;9.304;2023-09-12T01:40:44;12.80;;;9.15;;
966;SDS011;56108;48.730;9.304;2023-09-12T01:42:57;12.35;;;9.25;;
966;SDS011;56108;48.730;9.304;2023-09-12T01:45:09;13.30;;;8.63;;
966;SDS011;56108;48.730;9.304;2023-09-12T01:47:19;12.38;;;10.00;;
966;SDS011;56108;48.730;9.304;2023-09-12T01:49:29;14.77;;;9.52;;
966;SDS011;56108;48.730;9.304;2023-09-12T01:51:40;19.48;;;9.98;;
966;SDS011;56108;48.730;9.304;2023-09-12T01:53:49;14.93;;;11.23;;
966;SDS011;56108;48.730;9.304;2023-09-12T01:55:58;16.30;;;11.57;;
966;SDS011;56108;48.730;9.304;2023-09-12T01:58:11;14.35;;;10.90;;
966;SDS011;56108;48.730;9.304;2023-09-12T02:00:20;12.10;;;10.80;;
966;SDS011;56108;48.730;9.304;2023-09-12T02:02:31;14.23;;;11.32;;
966;SDS011;56108;48.730;9.304;2023-09-12T02:04:40;15.82;;;10.18;;
966;SDS011;56108;48.730;9.304;2023-09-12T02:06:48;12.68;;;9.98;;
966;SDS011;56108;48.730;9.304;2023-09-12T02:08:56;15.25;;;11.13;;
966;SDS011;56108;48.730;9.304;2023-09-12T02:11:05;12.38;;;10.15;;
966;SDS011;56108;48.730;9.304;2023-09-12T02:13:17;13.70;;;10.32;;
966;SDS011;56108;48.730;9.304;2023-09-12T02:15:25;10.95;;;9.68;;
966;SDS011;56108;48.730;9.304;2023-09-12T02:17:34;14.63;;;11.35;;
966;SDS011;56108;48.730;9.304;2023-09-12T02:19:46;15.07;;;10.88;;
966;SDS011;56108;48.730;9.304;2023-09-12T02:21:55;16.90;;;9.75;;
966;SDS011;56108;48.730;9.304;2023-09-12T02:24:04;16.70;;;11.75;;
966;SDS011;56108;48.730;9.304;2023-09-12T02:26:13;17.30;;;11.60;;
966;SDS011;56108;48.730;9.304;2023-09-12T02:28:25;14.95;;;10.45;;
966;SDS011;56108;48.730;9.304;2023-09-12T02:30:34;12.88;;;10.15;;
966;SDS011;56108;48.730;9.304;2023-09-12T02:32:46;13.38;;;10.23;;
966;SDS011;56108;48.730;9.304;2023-09-12T02:34:55;14.40;;;10.82;;
966;SDS011;56108;48.730;9.304;2023-09-12T02:37:02;14.90;;;9.95;;
966;SDS011;56108;48.730;9.304;2023-09-12T02:39:10;13.45;;;11.27;;
966;SDS011;56108;48.730;9.304;2023-09-12T02:41:19;15.95;;;10.00;;
966;SDS011;56108;48.730;9.304;2023-09-12T02:43:30;15.98;;;10.50;;
966;SDS011;56108;48.730;9.304;2023-09-12T02:45:37;14.02;;;10.43;;
966;SDS011;56108;48.730;9.304;2023-09-12T02:47:46;14.93;;;10.80;;
966;SDS011;56108;48.730;9.304;2023-09-12T02:49:55;14.82;;;10.82;;
966;SDS011;56108;48.730;9.304;2023-09-12T02:52:04;12.63;;;11.05;;
966;SDS011;56108;48.730;9.304;2023-09-12T02:54:13;11.88;;;9.98;;
966;SDS011;56108;48.730;9.304;2023-09-12T02:56:19;20.08;;;11.55;;
966;SDS011;56108;48.730;9.304;2023-09-12T02:58:30;13.48;;;11.05;;
966;SDS011;56108;48.730;9.304;2023-09-12T03:00:39;11.93;;;10.25;;
966;SDS011;56108;48.730;9.304;2023-09-12T03:02:48;14.38;;;11.82;;
966;SDS011;56108;48.730;9.304;2023-09-12T03:04:57;12.70;;;10.52;;
966;SDS011;56108;48.730;9.304;2023-09-12T03:07:06;13.50;;;10.95;;
966;SDS011;56108;48.730;9.304;2023-09-12T03:09:15;12.98;;;10.07;;
966;SDS011;56108;48.730;9.304;2023-09-12T03:11:25;13.88;;;9.80;;
966;SDS011;56108;48.730;9.304;2023-09-12T03:13:39;11.80;;;10.20;;
966;SDS011;56108;48.730;9.304;2023-09-12T03:15:49;11.48;;;10.27;;
966;SDS011;56108;48.730;9.304;2023-09-12T03:17:58;12.88;;;10.15;;
966;SDS011;56108;48.730;9.304;2023-09-12T03:20:07;15.68;;;10.27;;
966;SDS011;56108;48.730;9.304;2023-09-12T03:22:16;14.77;;;10.07;;
966;SDS011;56108;48.730;9.304;2023-09-12T03:24:25;11.38;;;9.77;;
966;SDS011;56108;48.730;9.304;2023-09-12T03:26:34;13.63;;;10.10;;
966;SDS011;56108;48.730;9.304;2023-09-12T03:28:48;13.07;;;10.32;;
966;SDS011;56108;48.730;9.304;2023-09-12T03:31:03;16.83;;;11.25;;
966;SDS011;56108;48.730;9.304;2023-09-12T03:33:13;13.60;;;9.80;;
966;SDS011;56108;48.730;9.304;2023-09-12T03:35:21;13.52;;;9.35;;
966;SDS011;56108;48.730;9.304;2023-09-12T03:37:30;15.13;;;10.50;;
966;SDS011;56108;48.730;9.304;2023-09-12T03:39:38;15.88;;;9.80;;
966;SDS011;56108;48.730;9.304;2023-09-12T03:41:47;13.98;;;9.90;;
966;SDS011;56108;48.730;9.304;2023-09-12T03:43:58;12.95;;;9.70;;
966;SDS011;56108;48.730;9.304;2023-09-12T03:46:07;12.35;;;10.43;;
966;SDS011;56108;48.730;9.304;2023-09-12T03:48:16;27.27;;;10.43;;
966;SDS011;56108;48.730;9.304;2023-09-12T03:50:24;13.18;;;9.70;;
966;SDS011;56108;48.730;9.304;2023-09-12T03:52:36;12.15;;;10.82;;
966;SDS011;56108;48.730;9.304;2023-09-12T03:54:44;15.60;;;11.82;;
966;SDS011;56108;48.730;9.304;2023-09-12T03:56:53;17.70;;;12.00;;
966;SDS011;56108;48.730;9.304;2023-09-12T03:59:04;11.73;;;9.45;;
966;SDS011;56108;48.730;9.304;2023-09-12T04:01:12;12.48;;;10.43;;
966;SDS011;56108;48.730;9.304;2023-09-12T04:03:21;14.35;;;10.45;;
966;SDS011;56108;48.730;9.304;2023-09-12T04:05:31;15.50;;;9.63;;
966;SDS011;56108;48.730;9.304;2023-09-12T04:07:39;12.20;;;9.60;;
966;SDS011;56108;48.730;9.304;2023-09-12T04:09:48;13.52;;;9.25;;
966;SDS011;56108;48.730;9.304;2023-09-12T04:11:56;11.80;;;9.73;;
966;SDS011;56108;48.730;9.304;2023-09-12T04:14:09;17.35;;;10.32;;
966;SDS011;56108;48.730;9.304;2023-09-12T04:16:17;12.18;;;9.40;;
966;SDS011;56108;48.730;9.304;2023-09-12T04:18:26;13.68;;;10.77;;
966;SDS011;56108;48.730;9.304;2023-09-12T04:20:34;12.35;;;10.20;;
966;SDS011;56108;48.730;9.304;2023-09-12T04:22:43;12.13;;;9.80;;
966;SDS011;56108;48.730;9.304;2023-09-12T04:24:51;13.05;;;10.65;;
966;SDS011;56108;48.730;9.304;2023-09-12T04:27:00;13.65;;;9.85;;
966;SDS011;56108;48.730;9.304;2023-09-12T04:29:13;13.23;;;10.48;;
966;SDS011;56108;48.730;9.304;2023-09-12T04:31:21;14.27;;;10.10;;
966;SDS011;56108;48.730;9.304;2023-09-12T04:33:29;14.25;;;10.60;;
966;SDS011;56108;48.730;9.304;2023-09-12T04:35:38;14.00;;;11.23;;
966;SDS011;56108;48.730;9.304;2023-09-12T04:37:47;14.85;;;10.70;;
966;SDS011;56108;48.730;9.304;2023-09-12T04:39:58;13.60;;;11.40;;
966;SDS011;56108;48.730;9.304;2023-09-12T04:42:10;15.73;;;10.23;;
966;SDS011;56108;48.730;9.304;2023-09-12T04:44:18;20.00;;;10.13;;
966;SDS011;56108;48.730;9.304;2023-09-12T04:46:27;13.13;;;9.90;;
966;SDS011;56108;48.730;9.304;2023-09-12T04:48:35;13.68;;;10.15;;
966;SDS011;56108;48.730;9.304;2023-09-12T04:50:45;18.42;;;10.70;;
966;SDS011;56108;48.730;9.304;2023-09-12T04:52:54;14.98;;;11.45;;
966;SDS011;56108;48.730;9.304;2023-09-12T04:55:03;17.13;;;10.90;;
966;SDS011;56108;48.730;9.304;2023-09-12T04:57:12;16.17;;;11.90;;
966;SDS011;56108;48.730;9.304;2023-09-12T04:59:23;13.05;;;10.02;;
966;SDS011;56108;48.730;9.304;2023-09-12T05:01:31;14.73;;;10.57;;
966;SDS011;56108;48.730;9.304;2023-09-12T05:03:40;12.88;;;10.68;;
966;SDS011;56108;48.730;9.304;2023-09-12T05:05:46;12.45;;;9.75;;
966;SDS011;56108;48.730;9.304;2023-09-12T05:07:55;22.20;;;11.60;;
966;SDS011;56108;48.730;9.304;2023-09-12T05:10:04;13.70;;;11.10;;
966;SDS011;56108;48.730;9.304;2023-09-12T05:12:13;15.80;;;11.63;;
966;SDS011;56108;48.730;9.304;2023-09-12T05:14:30;13.68;;;10.95;;
966;SDS011;56108;48.730;9.304;2023-09-12T05:16:40;14.73;;;10.73;;
966;SDS011;56108;48.730;9.304;2023-09-12T05:18:48;14.77;;;11.10;;
966;SDS011;56108;48.730;9.304;2023-09-12T05:20:57;13.68;;;10.75;;
966;SDS011;56108;48.730;9.304;2023-09-12T05:23:06;15.18;;;11.95;;
966;SDS011;56108;48.730;9.304;2023-09-12T05:25:14;15.93;;;10.23;;
966;SDS011;56108;48.730;9.304;2023-09-12T05:27:25;17.25;;;11.73;;
966;SDS011;56108;48.730;9.304;2023-09-12T05:29:36;14.63;;;10.80;;
966;SDS011;56108;48.730;9.304;2023-09-12T05:31:44;13.77;;;10.95;;
966;SDS011;56108;48.730;9.304;2023-09-12T05:33:53;14.38;;;9.75;;
966;SDS011;56108;48.730;9.304;2023-09-12T05:36:02;13.43;;;10.20;;
966;SDS011;56108;48.730;9.304;2023-09-12T05:38:11;15.20;;;9.98;;
966;SDS011;56108;48.730;9.304;2023-09-12T05:40:21;11.82;;;9.93;;
966;SDS011;56108;48.730;9.304;2023-09-12T05:42:29;14.60;;;10.43;;
966;SDS011;56108;48.730;9.304;2023-09-12T05:44:43;13.15;;;10.70;;
966;SDS011;56108;48.730;9.304;2023-09-12T05:46:51;12.88;;;10.52;;
966;SDS011;56108;48.730;9.304;2023-09-12T05:49:00;13.40;;;10.63;;
966;SDS011;56108;48.730;9.304;2023-09-12T05:51:10;14.13;;;10.98;;
966;SDS011;56108;48.730;9.304;2023-09-12T05:53:19;13.35;;;9.70;;
966;SDS011;56108;48.730;9.304;2023-09-12T05:55:27;12.65;;;9.70;;
966;SDS011;56108;48.730;9.304;2023-09-12T05:57:33;15.27;;;10.15;;
966;SDS011;56108;48.730;9.304;2023-09-12T05:59:45;16.65;;;10.80;;
966;SDS011;56108;48.730;9.304;2023-09-12T06:01:53;17.42;;;12.82;;
966;SDS011;56108;48.730;9.304;2023-09-12T06:04:02;12.27;;;10.38;;
966;SDS011;56108;48.730;9.304;2023-09-12T06:06:09;13.85;;;10.02;;
966;SDS011;56108;48.730;9.304;2023-09-12T06:08:17;13.18;;;9.88;;
966;SDS011;56108;48.730;9.304;2023-09-12T06:10:25;12.40;;;9.73;;
966;SDS011;56108;48.730;9.304;2023-09-12T06:12:34;12.98;;;9.23;;
966;SDS011;56108;48.730;9.304;2023-09-12T06:14:48;12.57;;;10.10;;
966;SDS011;56108;48.730;9.304;2023-09-12T06:16:58;17.83;;;10.45;;
966;SDS011;56108;48.730;9.304;2023-09-12T06:19:06;14.20;;;10.30;;
966;SDS011;56108;48.730;9.304;2023-09-12T06:21:15;13.10;;;9.60;;
966;SDS011;56108;48.730;9.304;2023-09-12T06:23:23;16.90;;;10.98;;
966;SDS011;56108;48.730;9.304;2023-09-12T06:25:32;12.90;;;9.88;;
966;SDS011;56108;48.730;9.304;2023-09-12T06:27:37;14.45;;;9.45;;
966;SDS011;56108;48.730;9.304;2023-09-12T06:29:52;11.52;;;10.15;;
966;SDS011;56108;48.730;9.304;2023-09-12T06:32:01;10.23;;;8.93;;
966;SDS011;56108;48.730;9.304;2023-09-12T06:34:10;12.00;;;9.95;;
966;SDS011;56108;48.730;9.304;2023-09-12T06:36:18;11.38;;;10.07;;
966;SDS011;56108;48.730;9.304;2023-09-12T06:38:28;11.02;;;9.05;;
966;SDS011;56108;48.730;9.304;2023-09-12T06:40:37;10.05;;;9.15;;
966;SDS011;56108;48.730;9.304;2023-09-12T06:42:45;10.80;;;8.82;;
966;SDS011;56108;48.730;9.304;2023-09-12T06:44:57;12.88;;;8.52;;
966;SDS011;56108;48.730;9.304;2023-09-12T06:47:05;10.65;;;9.40;;
966;SDS011;56108;48.730;9.304;2023-09-12T06:49:15;12.07;;;8.63;;
966;SDS011;56108;48.730;9.304;2023-09-12T06:51:23;12.30;;;9.20;;
966;SDS011;56108;48.730;9.304;2023-09-12T06:53:39;10.50;;;9.43;;
966;SDS011;56108;48.730;9.304;2023-09-12T06:55:48;14.63;;;10.40;;
966;SDS011;56108;48.730;9.304;2023-09-12T06:57:56;11.88;;;7.78;;
966;SDS011;56108;48.730;9.304;2023-09-12T07:00:09;10.50;;;9.05;;
966;SDS011;56108;48.730;9.304;2023-09-12T07:02:18;12.52;;;9.45;;
966;SDS011;56108;48.730;9.304;2023-09-12T07:04:27;11.43;;;9.88;;
966;SDS011;56108;48.730;9.304;2023-09-12T07:06:35;9.55;;;8.15;;
966;SDS011;56108;48.730;9.304;2023-09-12T07:08:44;14.90;;;9.82;;
966;SDS011;56108;48.730;9.304;2023-09-12T07:10:53;12.35;;;9.40;;
966;SDS011;56108;48.730;9.304;2023-09-12T07:13:02;12.13;;;8.60;;
966;SDS011;56108;48.730;9.304;2023-09-12T07:15:14;15.10;;;8.90;;
966;SDS011;56108;48.730;9.304;2023-09-12T07:17:22;15.38;;;9.27;;
966;SDS011;56108;48.730;9.304;2023-09-12T07:19:30;9.98;;;8.98;;
966;SDS011;56108;48.730;9.304;2023-09-12T07:21:39;12.27;;;9.35;;
966;SDS011;56108;48.730;9.304;2023-09-12T07:23:47;13.73;;;9.50;;
966;SDS011;56108;48.730;9.304;2023-09-12T07:25:56;14.20;;;9.10;;
966;SDS011;56108;48.730;9.304;2023-09-12T07:28:05;9.47;;;8.47;;
966;SDS011;56108;48.730;9.304;2023-09-12T07:30:16;10.83;;;8.60;;
966;SDS011;56108;48.730;9.304;2023-09-12T07:32:24;11.50;;;8.77;;
966;SDS011;56108;48.730;9.304;2023-09-12T07:34:33;10.10;;;8.10;;
966;SDS011;56108;48.730;9.304;2023-09-12T07:36:42;11.77;;;8.83;;
966;SDS011;56108;48.730;9.304;2023-09-12T07:38:51;11.97;;;9.03;;
966;SDS011;56108;48.730;9.304;2023-09-12T07:40:59;10.30;;;8.40;;
966;SDS011;56108;48.730;9.304;2023-09-12T07:43:09;10.63;;;9.07;;
966;SDS011;56108;48.730;9.304;2023-09-12T07:45:20;9.30;;;8.40;;
966;SDS011;56108;48.730;9.304;2023-09-12T07:47:26;11.17;;;9.37;;
966;SDS011;56108;48.730;9.304;2023-09-12T07:49:34;11.50;;;8.87;;
966;SDS011;56108;48.730;9.304;2023-09-12T07:51:45;15.50;;;9.07;;
966;SDS011;56108;48.730;9.304;2023-09-12T07:53:54;11.80;;;8.60;;
966;SDS011;56108;48.730;9.304;2023-09-12T07:56:02;9.10;;;8.07;;
966;SDS011;56108;48.730;9.304;2023-09-12T07:58:11;13.00;;;9.80;;
966;SDS011;56108;48.730;9.304;2023-09-12T08:00:23;11.33;;;9.67;;
966;SDS011;56108;48.730;9.304;2023-09-12T08:02:32;11.53;;;8.57;;
966;SDS011;56108;48.730;9.304;2023-09-12T08:04:41;10.30;;;8.90;;
966;SDS011;56108;48.730;9.304;2023-09-12T08:06:50;12.40;;;9.40;;
966;SDS011;56108;48.730;9.304;2023-09-12T08:09:02;9.50;;;8.60;;
966;SDS011;56108;48.730;9.304;2023-09-12T08:11:11;13.47;;;8.23;;
966;SDS011;56108;48.730;9.304;2023-09-12T08:13:19;15.50;;;8.47;;
966;SDS011;56108;48.730;9.304;2023-09-12T08:15:31;12.30;;;8.50;;
966;SDS011;56108;48.730;9.304;2023-09-12T08:17:39;9.63;;;8.60;;
966;SDS011;56108;48.730;9.304;2023-09-12T08:19:45;10.50;;;8.67;;
966;SDS011;56108;48.730;9.304;2023-09-12T08:21:54;9.07;;;8.13;;
966;SDS011;56108;48.730;9.304;2023-09-12T08:24:03;10.30;;;9.37;;
966;SDS011;56108;48.730;9.304;2023-09-12T08:26:12;12.43;;;9.37;;
966;SDS011;56108;48.730;9.304;2023-09-12T08:28:17;11.63;;;9.43;;
966;SDS011;56108;48.730;9.304;2023-09-12T08:30:26;10.57;;;9.37;;
966;SDS011;56108;48.730;9.304;2023-09-12T08:32:38;12.20;;;8.80;;
966;SDS011;56108;48.730;9.304;2023-09-12T08:34:49;13.70;;;8.63;;
966;SDS011;56108;48.730;9.304;2023-09-12T08:36:55;9.40;;;8.50;;
966;SDS011;56108;48.730;9.304;2023-09-12T08:39:03;9.73;;;8.73;;
966;SDS011;56108;48.730;9.304;2023-09-12T08:41:13;12.10;;;9.57;;
966;SDS011;56108;48.730;9.304;2023-09-12T08:43:22;15.10;;;9.50;;
966;SDS011;56108;48.730;9.304;2023-09-12T08:45:30;10.30;;;9.23;;
966;SDS011;56108;48.730;9.304;2023-09-12T08:47:43;10.43;;;9.00;;
966;SDS011;56108;48.730;9.304;2023-09-12T08:49:53;10.37;;;9.27;;
966;SDS011;56108;48.730;9.304;2023-09-12T08:52:03;12.67;;;9.47;;
966;SDS011;56108;48.730;9.304;2023-09-12T08:54:12;11.50;;;8.60;;
966;SDS011;56108;48.730;9.304;2023-09-12T08:56:20;11.20;;;9.27;;
966;SDS011;56108;48.730;9.304;2023-09-12T08:58:29;10.13;;;9.17;;
966;SDS011;56108;48.730;9.304;2023-09-12T09:00:38;12.20;;;10.23;;
966;SDS011;56108;48.730;9.304;2023-09-12T09:02:50;9.87;;;8.87;;
966;SDS011;56108;48.730;9.304;2023-09-12T09:05:00;9.80;;;8.37;;
966;SDS011;56108;48.730;9.304;2023-09-12T09:07:09;16.43;;;10.90;;
966;SDS011;56108;48.730;9.304;2023-09-12T09:09:19;13.77;;;9.93;;
966;SDS011;56108;48.730;9.304;2023-09-12T09:11:29;9.97;;;8.47;;
966;SDS011;56108;48.730;9.304;2023-09-12T09:13:37;9.53;;;8.53;;
966;SDS011;56108;48.730;9.304;2023-09-12T09:15:47;10.73;;;9.40;;
966;SDS011;56108;48.730;9.304;2023-09-12T09:17:58;11.53;;;8.80;;
966;SDS011;56108;48.730;9.304;2023-09-12T09:20:10;10.40;;;8.50;;
966;SDS011;56108;48.730;9.304;2023-09-12T09:22:29;9.37;;;8.20;;
966;SDS011;56108;48.730;9.304;2023-09-12T09:24:38;9.97;;;9.03;;
966;SDS011;56108;48.730;9.304;2023-09-12T09:26:49;13.70;;;9.07;;
966;SDS011;56108;48.730;9.304;2023-09-12T09:29:05;9.20;;;8.30;;
966;SDS011;56108;48.730;9.304;2023-09-12T09:31:13;10.53;;;9.03;;
966;SDS011;56108;48.730;9.304;2023-09-12T09:33:24;9.27;;;8.37;;
966;SDS011;56108;48.730;9.304;2023-09-12T09:35:33;12.40;;;9.07;;
966;SDS011;56108;48.730;9.304;2023-09-12T09:37:42;9.57;;;8.57;;
966;SDS011;56108;48.730;9.304;2023-09-12T09:39:54;9.53;;;8.67;;
966;SDS011;56108;48.730;9.304;2023-09-12T09:42:02;9.30;;;8.50;;
966;SDS011;56108;48.730;9.304;2023-09-12T09:44:11;9.17;;;7.60;;
966;SDS011;56108;48.730;9.304;2023-09-12T09:46:21;9.87;;;8.87;;
966;SDS011;56108;48.730;9.304;2023-09-12T09:48:32;10.10;;;9.23;;
966;SDS011;56108;48.730;9.304;2023-09-12T09:50:40;9.67;;;8.77;;
966;SDS011;56108;48.730;9.304;2023-09-12T09:52:52;8.40;;;7.53;;
966;SDS011;56108;48.730;9.304;2023-09-12T09:55:00;8.00;;;7.20;;
966;SDS011;56108;48.730;9.304;2023-09-12T09:57:12;9.70;;;8.90;;
966;SDS011;56108;48.730;9.304;2023-09-12T09:59:21;8.83;;;7.93;;
966;SDS011;56108;48.730;9.304;2023-09-12T10:01:30;8.23;;;7.47;;
966;SDS011;56108;48.730;9.304;2023-09-12T10:03:41;8.27;;;7.57;;
966;SDS011;56108;48.730;9.304;2023-09-12T10:05:51;8.53;;;7.73;;
966;SDS011;56108;48.730;9.304;2023-09-12T10:08:03;7.70;;;7.00;;
966;SDS011;56108;48.730;9.304;2023-09-12T10:10:16;8.10;;;7.30;;
966;SDS011;56108;48.730;9.304;2023-09-12T10:12:25;9.23;;;8.30;;
966;SDS011;56108;48.730;9.304;2023-09-12T10:14:35;8.60;;;7.80;;
966;SDS011;56108;48.730;9.304;2023-09-12T10:16:48;8.40;;;7.50;;
966;SDS011;56108;48.730;9.304;2023-09-12T10:19:03;9.30;;;7.57;;
966;SDS011;56108;48.730;9.304;2023-09-12T10:21:17;8.40;;;7.70;;
966;SDS011;56108;48.730;9.304;2023-09-12T10:23:39;8.60;;;7.80;;
966;SDS011;56108;48.730;9.304;2023-09-12T10:25:55;8.10;;;7.40;;
966;SDS011;56108;48.730;9.304;2023-09-12T10:28:06;8.00;;;7.10;;
966;SDS011;56108;48.730;9.304;2023-09-12T10:30:15;8.40;;;7.60;;
966;SDS011;56108;48.730;9.304;2023-09-12T10:32:23;8.60;;;7.90;;
966;SDS011;56108;48.730;9.304;2023-09-12T10:34:36;8.10;;;7.40;;
966;SDS011;56108;48.730;9.304;2023-09-12T10:36:49;8.43;;;7.63;;
966;SDS011;56108;48.730;9.304;2023-09-12T10:38:59;8.07;;;7.27;;
966;SDS011;56108;48.730;9.304;2023-09-12T10:41:09;8.80;;;8.00;;
966;SDS011;56108;48.730;9.304;2023-09-12T10:43:20;8.47;;;7.67;;
966;SDS011;56108;48.730;9.304;2023-09-12T10:45:31;7.87;;;7.17;;
966;SDS011;56108;48.730;9.304;2023-09-12T10:47:41;8.40;;;7.50;;
966;SDS011;56108;48.730;9.304;2023-09-12T10:49:50;8.97;;;8.03;;
966;SDS011;56108;48.730;9.304;2023-09-12T10:51:59;8.93;;;7.63;;
966;SDS011;56108;48.730;9.304;2023-09-12T10:54:07;7.60;;;6.80;;
966;SDS011;56108;48.730;9.304;2023-09-12T10:56:18;7.97;;;7.13;;
966;SDS011;56108;48.730;9.304;2023-09-12T10:58:38;8.30;;;7.50;;
966;SDS011;56108;48.730;9.304;2023-09-12T11:01:21;9.40;;;7.87;;
966;SDS011;56108;48.730;9.304;2023-09-12T11:03:38;7.93;;;7.20;;
966;SDS011;56108;48.730;9.304;2023-09-12T11:05:51;8.13;;;7.50;;
966;SDS011;56108;48.730;9.304;2023-09-12T11:08:01;8.40;;;7.37;;
966;SDS011;56108;48.730;9.304;2023-09-12T11:10:20;8.27;;;7.40;;
966;SDS011;56108;48.730;9.304;2023-09-12T11:12:35;7.97;;;7.27;;
966;SDS011;56108;48.730;9.304;2023-09-12T11:17:21;8.77;;;7.87;;
966;SDS011;56108;48.730;9.304;2023-09-12T11:19:28;9.00;;;7.93;;
966;SDS011;56108;48.730;9.304;2023-09-12T11:21:36;7.10;;;6.30;;
966;SDS011;56108;48.730;9.304;2023-09-12T11:23:48;8.83;;;7.70;;
966;SDS011;56108;48.730;9.304;2023-09-12T11:26:02;7.77;;;6.97;;
966;SDS011;56108;48.730;9.304;2023-09-12T11:28:16;8.60;;;7.80;;
966;SDS011;56108;48.730;9.304;2023-09-12T11:30:29;10.13;;;7.77;;
966;SDS011;56108;48.730;9.304;2023-09-12T11:32:39;9.87;;;7.97;;
966;SDS011;56108;48.730;9.304;2023-09-12T11:34:48;7.90;;;7.17;;
966;SDS011;56108;48.730;9.304;2023-09-12T11:36:57;9.67;;;6.90;;
966;SDS011;56108;48.730;9.304;2023-09-12T11:39:22;8.00;;;7.20;;
966;SDS011;56108;48.730;9.304;2023-09-12T11:41:38;8.60;;;7.70;;
966;SDS011;56108;48.730;9.304;2023-09-12T11:43:47;7.97;;;7.13;;
966;SDS011;56108;48.730;9.304;2023-09-12T11:45:58;7.20;;;6.53;;
966;SDS011;56108;48.730;9.304;2023-09-12T11:48:07;9.93;;;7.30;;
966;SDS011;56108;48.730;9.304;2023-09-12T11:52:38;7.40;;;6.80;;
966;SDS011;56108;48.730;9.304;2023-09-12T11:54:47;7.40;;;6.70;;
966;SDS011;56108;48.730;9.304;2023-09-12T11:56:55;7.80;;;6.20;;
966;SDS011;56108;48.730;9.304;2023-09-12T11:59:04;6.50;;;5.87;;
966;SDS011;56108;48.730;9.304;2023-09-12T12:01:20;6.40;;;5.80;;
966;SDS011;56108;48.730;9.304;2023-09-12T12:03:28;10.57;;;6.37;;
966;SDS011;56108;48.730;9.304;2023-09-12T12:05:37;6.70;;;6.10;;
966;SDS011;56108;48.730;9.304;2023-09-12T12:07:46;6.73;;;6.10;;
966;SDS011;56108;48.730;9.304;2023-09-12T12:09:56;6.80;;;6.10;;
966;SDS011;56108;48.730;9.304;2023-09-12T12:12:08;6.30;;;5.80;;
966;SDS011;56108;48.730;9.304;2023-09-12T12:14:18;7.60;;;6.03;;
966;SDS011;56108;48.730;9.304;2023-09-12T12:16:30;7.63;;;6.63;;
966;SDS011;56108;48.730;9.304;2023-09-12T12:18:38;6.80;;;6.00;;
966;SDS011;56108;48.730;9.304;2023-09-12T12:20:47;6.23;;;5.70;;
966;SDS011;56108;48.730;9.304;2023-09-12T12:22:55;7.37;;;6.70;;
966;SDS011;56108;48.730;9.304;2023-09-12T12:25:06;6.20;;;5.63;;
966;SDS011;56108;48.730;9.304;2023-09-12T12:27:16;5.77;;;5.20;;
966;SDS011;56108;48.730;9.304;2023-09-12T12:29:25;6.20;;;5.70;;
966;SDS011;56108;48.730;9.304;2023-09-12T12:31:36;6.07;;;5.57;;
966;SDS011;56108;48.730;9.304;2023-09-12T12:33:47;6.80;;;5.90;;
966;SDS011;56108;48.730;9.304;2023-09-12T12:36:16;6.70;;;5.90;;
966;SDS011;56108;48.730;9.304;2023-09-12T12:38:25;7.07;;;5.87;;
966;SDS011;56108;48.730;9.304;2023-09-12T12:40:37;5.50;;;5.00;;
966;SDS011;56108;48.730;9.304;2023-09-12T12:42:52;6.40;;;5.70;;
966;SDS011;56108;48.730;9.304;2023-09-12T12:45:00;6.07;;;5.47;;
966;SDS011;56108;48.730;9.304;2023-09-12T12:47:16;6.10;;;5.60;;
966;SDS011;56108;48.730;9.304;2023-09-12T12:49:24;6.80;;;6.17;;
966;SDS011;56108;48.730;9.304;2023-09-12T12:51:33;6.10;;;5.10;;
966;SDS011;56108;48.730;9.304;2023-09-12T12:53:42;6.50;;;4.97;;
966;SDS011;56108;48.730;9.304;2023-09-12T12:55:58;6.83;;;5.50;;
966;SDS011;56108;48.730;9.304;2023-09-12T12:58:07;6.20;;;5.70;;
966;SDS011;56108;48.730;9.304;2023-09-12T13:00:16;6.00;;;5.13;;
966;SDS011;56108;48.730;9.304;2023-09-12T13:02:28;5.23;;;4.83;;
966;SDS011;56108;48.730;9.304;2023-09-12T13:04:37;5.43;;;4.97;;
966;SDS011;56108;48.730;9.304;2023-09-12T13:06:46;7.23;;;5.77;;
966;SDS011;56108;48.730;9.304;2023-09-12T13:08:55;5.40;;;5.00;;
966;SDS011;56108;48.730;9.304;2023-09-12T13:11:11;6.23;;;5.57;;
966;SDS011;56108;48.730;9.304;2023-09-12T13:13:22;5.47;;;4.97;;
966;SDS011;56108;48.730;9.304;2023-09-12T13:15:30;5.93;;;5.43;;
966;SDS011;56108;48.730;9.304;2023-09-12T13:17:42;6.43;;;5.83;;
966;SDS011;56108;48.730;9.304;2023-09-12T13:19:51;5.80;;;5.17;;